BRU619 EDDN-LIPZ
Flight info
| Callsign | BRU619 |
|---|---|
| Flight time | N/A |
| Altitude | 31000 |
| Route | BOLSI1C BOLSI Y167 AKANU L603 OLETU Z106 MANAL DCT BERAS M736 OLPIX/N0339F190 M736 ADOSA L612 ALBET |
| Aircraft | A20N/M-SDE2E3FGHIRWXY/LB1 |
Departure
| Time | N/A |
|---|---|
| Airport | Nuremberg Airport (EDDN) |
Arrival
| Time | 2026-05-06 08:44 |
|---|---|
| Airport | Venice Marco Polo Airport (LIPZ) |
| Time | Latitude | Longitude | Altitude | Speed | Heading |
|---|---|---|---|---|---|
| 2026-05-06 07:53 | 48.53955 | 11.46103 | 30821 ft | 463 kts | 134° |
| 2026-05-06 07:53 | 48.52045 | 11.49928 | 30819 ft | 462 kts | 134° |
| 2026-05-06 07:54 | 48.47990 | 11.57348 | 30821 ft | 448 kts | 146° |
| 2026-05-06 07:54 | 48.45506 | 11.60069 | 30824 ft | 435 kts | 158° |
| 2026-05-06 07:54 | 48.42779 | 11.61884 | 30830 ft | 424 kts | 169° |
| 2026-05-06 07:55 | 48.37084 | 11.63887 | 30833 ft | 419 kts | 174° |
| 2026-05-06 07:55 | 48.31392 | 11.65817 | 30819 ft | 419 kts | 174° |
| 2026-05-06 07:56 | 48.25732 | 11.67744 | 30827 ft | 418 kts | 174° |
| 2026-05-06 07:56 | 48.20051 | 11.69697 | 30824 ft | 418 kts | 174° |
| 2026-05-06 07:57 | 48.14415 | 11.71637 | 30818 ft | 418 kts | 174° |
| 2026-05-06 07:57 | 48.08741 | 11.73582 | 30815 ft | 418 kts | 174° |
| 2026-05-06 07:58 | 48.03058 | 11.75524 | 30813 ft | 417 kts | 174° |
| 2026-05-06 07:58 | 47.97397 | 11.77450 | 30812 ft | 417 kts | 174° |
| 2026-05-06 07:59 | 47.91767 | 11.79288 | 30811 ft | 414 kts | 177° |
| 2026-05-06 07:59 | 47.86084 | 11.79822 | 30809 ft | 405 kts | 187° |
| 2026-05-06 08:00 | 47.80443 | 11.79461 | 30821 ft | 405 kts | 187° |
| 2026-05-06 08:00 | 47.74807 | 11.79131 | 30818 ft | 404 kts | 187° |
| 2026-05-06 08:01 | 47.69211 | 11.78814 | 30813 ft | 404 kts | 187° |
| 2026-05-06 08:01 | 47.63578 | 11.78499 | 30813 ft | 404 kts | 187° |
| 2026-05-06 08:02 | 47.57972 | 11.78183 | 30824 ft | 405 kts | 187° |
| 2026-05-06 08:02 | 47.52340 | 11.77867 | 30812 ft | 405 kts | 187° |
| 2026-05-06 08:03 | 47.47672 | 11.77608 | 30817 ft | 404 kts | 187° |
| 2026-05-06 08:03 | 47.41098 | 11.77245 | 30823 ft | 406 kts | 187° |
| 2026-05-06 08:04 | 47.36344 | 11.76976 | 30824 ft | 410 kts | 187° |
| 2026-05-06 08:04 | 47.30688 | 11.76661 | 30825 ft | 409 kts | 186° |
| 2026-05-06 08:05 | 47.24986 | 11.76345 | 30832 ft | 410 kts | 187° |
| 2026-05-06 08:05 | 47.19282 | 11.76029 | 30831 ft | 410 kts | 187° |
| 2026-05-06 08:06 | 47.13623 | 11.75494 | 30863 ft | 407 kts | 193° |
| 2026-05-06 08:06 | 47.08186 | 11.73361 | 30864 ft | 402 kts | 204° |
| 2026-05-06 08:07 | 47.03099 | 11.69973 | 30877 ft | 400 kts | 207° |
| 2026-05-06 08:07 | 46.98072 | 11.66573 | 30872 ft | 399 kts | 207° |
| 2026-05-06 08:08 | 46.93029 | 11.63192 | 30882 ft | 398 kts | 206° |
| 2026-05-06 08:08 | 46.88010 | 11.59842 | 30884 ft | 398 kts | 206° |
| 2026-05-06 08:09 | 46.82948 | 11.56452 | 30896 ft | 400 kts | 207° |
| 2026-05-06 08:09 | 46.77905 | 11.53091 | 30904 ft | 398 kts | 207° |
| 2026-05-06 08:10 | 46.72894 | 11.49761 | 30908 ft | 397 kts | 206° |
| 2026-05-06 08:10 | 46.67860 | 11.46420 | 30910 ft | 396 kts | 207° |
| 2026-05-06 08:11 | 46.62833 | 11.43083 | 30905 ft | 397 kts | 207° |
| 2026-05-06 08:11 | 46.57841 | 11.39779 | 30917 ft | 396 kts | 207° |
| 2026-05-06 08:12 | 46.52829 | 11.36471 | 30913 ft | 395 kts | 207° |
| 2026-05-06 08:12 | 46.47816 | 11.33170 | 30921 ft | 394 kts | 207° |
| 2026-05-06 08:13 | 46.42694 | 11.30331 | 30916 ft | 395 kts | 202° |
| 2026-05-06 08:13 | 46.37408 | 11.28144 | 30927 ft | 400 kts | 197° |
| 2026-05-06 08:14 | 46.32008 | 11.26318 | 30930 ft | 397 kts | 197° |
| 2026-05-06 08:14 | 46.26609 | 11.24480 | 30965 ft | 398 kts | 197° |
| 2026-05-06 08:15 | 46.21224 | 11.22647 | 30955 ft | 397 kts | 197° |
| 2026-05-06 08:15 | 46.18528 | 11.21730 | 30774 ft | 399 kts | 197° |
| 2026-05-06 08:15 | 46.15861 | 11.20822 | 30504 ft | 398 kts | 197° |
| 2026-05-06 08:16 | 46.13170 | 11.19908 | 30243 ft | 397 kts | 197° |
| 2026-05-06 08:16 | 46.10484 | 11.18996 | 29990 ft | 396 kts | 197° |
| 2026-05-06 08:16 | 46.07801 | 11.18088 | 29700 ft | 394 kts | 197° |
| 2026-05-06 08:16 | 46.05121 | 11.17188 | 29431 ft | 395 kts | 197° |
| 2026-05-06 08:17 | 46.02449 | 11.16281 | 29143 ft | 392 kts | 197° |
| 2026-05-06 08:17 | 45.99807 | 11.15341 | 28851 ft | 389 kts | 198° |
| 2026-05-06 08:17 | 45.97224 | 11.14398 | 28576 ft | 387 kts | 198° |
| 2026-05-06 08:17 | 45.94606 | 11.13441 | 28310 ft | 387 kts | 198° |
| 2026-05-06 08:18 | 45.91991 | 11.12491 | 28010 ft | 386 kts | 197° |
| 2026-05-06 08:18 | 45.89385 | 11.11550 | 27444 ft | 385 kts | 197° |
| 2026-05-06 08:18 | 45.86799 | 11.10621 | 26876 ft | 381 kts | 197° |
| 2026-05-06 08:18 | 45.84242 | 11.09707 | 26343 ft | 376 kts | 197° |
| 2026-05-06 08:19 | 45.81716 | 11.08806 | 25797 ft | 372 kts | 197° |
| 2026-05-06 08:19 | 45.79249 | 11.07925 | 25275 ft | 367 kts | 197° |
| 2026-05-06 08:19 | 45.76781 | 11.07040 | 24736 ft | 365 kts | 197° |
| 2026-05-06 08:19 | 45.74327 | 11.06158 | 24239 ft | 362 kts | 197° |
| 2026-05-06 08:20 | 45.71880 | 11.05281 | 23701 ft | 359 kts | 197° |
| 2026-05-06 08:20 | 45.69424 | 11.04653 | 23157 ft | 359 kts | 186° |
| 2026-05-06 08:20 | 45.66936 | 11.04906 | 22635 ft | 361 kts | 173° |
| 2026-05-06 08:20 | 45.64550 | 11.06068 | 22132 ft | 363 kts | 159° |
| 2026-05-06 08:21 | 45.62457 | 11.08049 | 21600 ft | 370 kts | 145° |
| 2026-05-06 08:21 | 45.60740 | 11.10817 | 21098 ft | 377 kts | 130° |
| 2026-05-06 08:21 | 45.59330 | 11.13964 | 20569 ft | 374 kts | 129° |
| 2026-05-06 08:21 | 45.57941 | 11.17082 | 20035 ft | 371 kts | 129° |
| 2026-05-06 08:22 | 45.56562 | 11.20175 | 19522 ft | 367 kts | 129° |
| 2026-05-06 08:22 | 45.55191 | 11.23230 | 19000 ft | 364 kts | 129° |
| 2026-05-06 08:22 | 45.53827 | 11.26260 | 18478 ft | 362 kts | 129° |
| 2026-05-06 08:22 | 45.52471 | 11.29269 | 17919 ft | 358 kts | 129° |
| 2026-05-06 08:23 | 45.51132 | 11.32238 | 17407 ft | 353 kts | 129° |
| 2026-05-06 08:23 | 45.49807 | 11.35168 | 16906 ft | 349 kts | 129° |
| 2026-05-06 08:23 | 45.48496 | 11.38067 | 16403 ft | 346 kts | 129° |
| 2026-05-06 08:23 | 45.47209 | 11.40908 | 15907 ft | 344 kts | 129° |
| 2026-05-06 08:24 | 45.45917 | 11.43758 | 15414 ft | 341 kts | 129° |
| 2026-05-06 08:24 | 45.44633 | 11.46586 | 14923 ft | 339 kts | 129° |
| 2026-05-06 08:24 | 45.43354 | 11.49397 | 14433 ft | 338 kts | 129° |
| 2026-05-06 08:24 | 45.41956 | 11.52059 | 13936 ft | 334 kts | 137° |
| 2026-05-06 08:25 | 45.40400 | 11.54495 | 13441 ft | 330 kts | 138° |
| 2026-05-06 08:25 | 45.38867 | 11.56903 | 12962 ft | 327 kts | 137° |
| 2026-05-06 08:25 | 45.37371 | 11.59276 | 12485 ft | 325 kts | 137° |
| 2026-05-06 08:25 | 45.35879 | 11.61676 | 12023 ft | 324 kts | 133° |
| 2026-05-06 08:26 | 45.34776 | 11.64506 | 11551 ft | 331 kts | 114° |
| 2026-05-06 08:26 | 45.34392 | 11.67758 | 11047 ft | 338 kts | 92° |
| 2026-05-06 08:26 | 45.34536 | 11.71102 | 10573 ft | 337 kts | 89° |
| 2026-05-06 08:26 | 45.34702 | 11.74376 | 10230 ft | 332 kts | 89° |
| 2026-05-06 08:27 | 45.34865 | 11.77582 | 10094 ft | 318 kts | 89° |
| 2026-05-06 08:27 | 45.35011 | 11.80668 | 9890 ft | 308 kts | 90° |
| 2026-05-06 08:27 | 45.34776 | 11.83620 | 9526 ft | 296 kts | 114° |
| 2026-05-06 08:27 | 45.33759 | 11.86075 | 9105 ft | 285 kts | 135° |
| 2026-05-06 08:28 | 45.32438 | 11.88160 | 8719 ft | 283 kts | 136° |
| 2026-05-06 08:28 | 45.30999 | 11.89937 | 8563 ft | 266 kts | 156° |
| 2026-05-06 08:28 | 45.29297 | 11.90562 | 8406 ft | 247 kts | 183° |
| 2026-05-06 08:28 | 45.27679 | 11.90030 | 8052 ft | 242 kts | 208° |
| 2026-05-06 08:29 | 45.26348 | 11.88586 | 7627 ft | 242 kts | 222° |
| 2026-05-06 08:29 | 45.25102 | 11.86969 | 7241 ft | 242 kts | 221° |
| 2026-05-06 08:29 | 45.23850 | 11.85367 | 6848 ft | 243 kts | 221° |
| 2026-05-06 08:29 | 45.22591 | 11.83773 | 6493 ft | 242 kts | 221° |
| 2026-05-06 08:30 | 45.21330 | 11.82186 | 6109 ft | 242 kts | 220° |
| 2026-05-06 08:30 | 45.20086 | 11.80626 | 5761 ft | 241 kts | 220° |
| 2026-05-06 08:30 | 45.18832 | 11.79055 | 5387 ft | 241 kts | 220° |
| 2026-05-06 08:30 | 45.17572 | 11.77477 | 5053 ft | 239 kts | 220° |
| 2026-05-06 08:31 | 45.16321 | 11.75912 | 4723 ft | 239 kts | 220° |
| 2026-05-06 08:31 | 45.15089 | 11.74374 | 4471 ft | 234 kts | 220° |
| 2026-05-06 08:31 | 45.13868 | 11.72848 | 4141 ft | 233 kts | 220° |
| 2026-05-06 08:31 | 45.12659 | 11.71382 | 4010 ft | 232 kts | 213° |
| 2026-05-06 08:32 | 45.11147 | 11.70639 | 3997 ft | 232 kts | 182° |
| 2026-05-06 08:32 | 45.09583 | 11.71147 | 3997 ft | 235 kts | 152° |
| 2026-05-06 08:32 | 45.08349 | 11.72676 | 3993 ft | 239 kts | 134° |
| 2026-05-06 08:32 | 45.07309 | 11.74480 | 3993 ft | 239 kts | 130° |
| 2026-05-06 08:33 | 45.06502 | 11.76530 | 3995 ft | 243 kts | 107° |
| 2026-05-06 08:33 | 45.06511 | 11.78940 | 3994 ft | 251 kts | 76° |
| 2026-05-06 08:33 | 45.07379 | 11.81085 | 3996 ft | 255 kts | 49° |
| 2026-05-06 08:33 | 45.08707 | 11.82769 | 3993 ft | 257 kts | 39° |
| 2026-05-06 08:34 | 45.10113 | 11.84279 | 3995 ft | 256 kts | 38° |
| 2026-05-06 08:34 | 45.12916 | 11.87428 | 3993 ft | 256 kts | 41° |
| 2026-05-06 08:34 | 45.14262 | 11.89062 | 3997 ft | 255 kts | 42° |
| 2026-05-06 08:35 | 45.15596 | 11.90728 | 3999 ft | 256 kts | 43° |
| 2026-05-06 08:35 | 45.16913 | 11.92386 | 3992 ft | 251 kts | 44° |
| 2026-05-06 08:35 | 45.18209 | 11.94025 | 3997 ft | 246 kts | 43° |
| 2026-05-06 08:35 | 45.19477 | 11.95546 | 3989 ft | 232 kts | 41° |
| 2026-05-06 08:36 | 45.20685 | 11.97013 | 3998 ft | 232 kts | 44° |
| 2026-05-06 08:36 | 45.21874 | 11.98518 | 3995 ft | 229 kts | 44° |
| 2026-05-06 08:36 | 45.23058 | 12.00032 | 3995 ft | 231 kts | 43° |
| 2026-05-06 08:36 | 45.24256 | 12.01555 | 3991 ft | 229 kts | 44° |
| 2026-05-06 08:37 | 45.25445 | 12.03072 | 3997 ft | 230 kts | 44° |
| 2026-05-06 08:37 | 45.26638 | 12.04595 | 3996 ft | 236 kts | 43° |
| 2026-05-06 08:37 | 45.27872 | 12.06170 | 3995 ft | 239 kts | 43° |
| 2026-05-06 08:37 | 45.29108 | 12.07746 | 3981 ft | 237 kts | 43° |
| 2026-05-06 08:38 | 45.30305 | 12.09273 | 3865 ft | 231 kts | 44° |
| 2026-05-06 08:38 | 45.31479 | 12.10773 | 3686 ft | 225 kts | 44° |
| 2026-05-06 08:38 | 45.32630 | 12.12245 | 3569 ft | 222 kts | 44° |
| 2026-05-06 08:38 | 45.33773 | 12.13698 | 3492 ft | 217 kts | 45° |
| 2026-05-06 08:39 | 45.34916 | 12.15216 | 3393 ft | 230 kts | 43° |
| 2026-05-06 08:39 | 45.36076 | 12.16651 | 3260 ft | 210 kts | 44° |
| 2026-05-06 08:39 | 45.37098 | 12.17964 | 3188 ft | 188 kts | 44° |
| 2026-05-06 08:39 | 45.38016 | 12.19135 | 3004 ft | 166 kts | 45° |
| 2026-05-06 08:40 | 45.38832 | 12.20182 | 2810 ft | 153 kts | 46° |
| 2026-05-06 08:40 | 45.39584 | 12.21145 | 2617 ft | 137 kts | 45° |
| 2026-05-06 08:40 | 45.40305 | 12.22076 | 2457 ft | 146 kts | 46° |
| 2026-05-06 08:40 | 45.41053 | 12.23030 | 2263 ft | 141 kts | 46° |
| 2026-05-06 08:41 | 45.41772 | 12.23952 | 2084 ft | 140 kts | 45° |
| 2026-05-06 08:41 | 45.42500 | 12.24887 | 1902 ft | 143 kts | 47° |
| 2026-05-06 08:41 | 45.43233 | 12.25827 | 1717 ft | 140 kts | 46° |
| 2026-05-06 08:41 | 45.43957 | 12.26756 | 1512 ft | 140 kts | 45° |
| 2026-05-06 08:42 | 45.44681 | 12.27686 | 1329 ft | 138 kts | 45° |
| 2026-05-06 08:42 | 45.45389 | 12.28595 | 1141 ft | 136 kts | 45° |
| 2026-05-06 08:42 | 45.46091 | 12.29498 | 964 ft | 138 kts | 46° |
| 2026-05-06 08:42 | 45.46784 | 12.30386 | 785 ft | 136 kts | 46° |
| 2026-05-06 08:43 | 45.47497 | 12.31303 | 583 ft | 139 kts | 45° |
| 2026-05-06 08:43 | 45.48202 | 12.32209 | 395 ft | 134 kts | 45° |
| 2026-05-06 08:43 | 45.48898 | 12.33104 | 203 ft | 134 kts | 44° |
| 2026-05-06 08:43 | 45.49603 | 12.34012 | 29 ft | 139 kts | 44° |
| 2026-05-06 08:44 | 45.50197 | 12.34785 | 12 ft | 92 kts | 41° |
| 2026-05-06 08:44 | 45.50626 | 12.35339 | 13 ft | 72 kts | 40° |
| 2026-05-06 08:44 | 45.50968 | 12.35762 | 12 ft | 56 kts | 31° |
| 2026-05-06 08:44 | 45.51249 | 12.35874 | 10 ft | 1 kts | 333° |
| 2026-05-06 08:45 | 45.51267 | 12.35822 | 11 ft | 9 kts | 255° |
| 2026-05-06 08:45 | 45.51229 | 12.35756 | 12 ft | 9 kts | 224° |
| 2026-05-06 08:45 | 45.51184 | 12.35696 | 14 ft | 14 kts | 219° |
| 2026-05-06 08:46 | 45.51078 | 12.35563 | 14 ft | 22 kts | 221° |
| 2026-05-06 08:46 | 45.50992 | 12.35410 | 18 ft | 18 kts | 245° |
| 2026-05-06 08:46 | 45.50963 | 12.35246 | 20 ft | 16 kts | 254° |
| 2026-05-06 08:46 | 45.50901 | 12.35133 | 19 ft | 13 kts | 224° |
| 2026-05-06 08:47 | 45.50829 | 12.35042 | 18 ft | 19 kts | 222° |
| 2026-05-06 08:47 | 45.50694 | 12.34868 | 15 ft | 31 kts | 223° |
| 2026-05-06 08:47 | 45.50606 | 12.34628 | 14 ft | 26 kts | 265° |
| 2026-05-06 08:47 | 45.50602 | 12.34393 | 14 ft | 20 kts | 292° |
| 2026-05-06 08:48 | 45.50671 | 12.34294 | 13 ft | 11 kts | 314° |
| 2026-05-06 08:48 | 45.50700 | 12.34206 | 12 ft | 8 kts | 251° |
| 2026-05-06 08:48 | 45.50667 | 12.34157 | 12 ft | 7 kts | 224° |
| 2026-05-06 08:48 | 45.50642 | 12.34122 | 13 ft | 0 kts | 226° |